Accueil
METAR-TAF:

METAR-TAF

Aéroports :

Aéroport de Lydd

Lydd, Angleterre

latitude: 50-57N, longitude: 000-56E, altitude: 3 m

Observation

Le bulletin a été fait il y a 30 minutes, à 22:20 UTC
Vent 15 kt de sud
Température 11°C
Humidité 87%
Pression 1013 hPa
Visibilité 10 km ou plus

METAR: EGMD 242220Z AUTO 18015KT 9999 NCD 11/09 Q1013

Heure: 22:50 (22:50 UTC)

Prévision

Le bulletin a été fait il y a 2 heures et 49 minutes, à 20:01 UTC
Prévision valable du 24 à 21 UTC au 25 à 06 UTC
Vent 13 kt de sud
Visibilité 10 km ou plus
Quelques nuages à une hauteur de 1500 ft
Probabilité 30% :
Temporairement
du 24 à 21 UTC au 25 à 02 UTC
Vent 16 kt de sud-ouest avec des rafales jusqu'à 26 kt
Probabilité 30% :
Temporairement
du 25 à 03 UTC au 25 à 06 UTC
Nuages fragmentés à une hauteur de 1400 ft

TAF: EGMD 242001Z 2421/2506 18013KT 9999 FEW015 PROB30 TEMPO 2421/2502 22016G26KT PROB30 TEMPO 2503/2506 BKN014

Observations et prévisions météorologiques de plus de 4000 aéroports (messages METAR et TAF).

Les stations disponibles sont représentées par des disques jaunes et rouges sur la carte.

Passer la souris dessus pour voir le nom de la station.

Cliquer dessus pour voir les observations et prévisions météorologiques.

Pour changer de carte: cliquez sur les boutons verts avec une croix noire pour zoomer, sur le bouton vert avec un tiret pour effectuer un zoom arrière, ou sur les flèches vertes pour les cartes adjacentes.


METAR-TAF: